createdAt,value
2023-06-17T00:00:42.919Z,12.20
2023-06-17T00:03:10.204Z,12.25
2023-06-17T00:05:37.523Z,12.24
2023-06-17T00:08:04.292Z,12.25
2023-06-17T00:10:31.296Z,12.28
2023-06-17T00:12:59.761Z,12.30
2023-06-17T00:15:26.616Z,12.19
2023-06-17T00:17:53.453Z,12.08
2023-06-17T00:20:21.597Z,12.02
2023-06-17T00:22:48.682Z,11.95
2023-06-17T00:25:15.659Z,11.91
2023-06-17T00:27:42.400Z,11.94
2023-06-17T00:30:09.649Z,11.91
2023-06-17T00:32:37.287Z,11.98
2023-06-17T00:35:07.182Z,11.94
2023-06-17T00:37:34.020Z,11.72
2023-06-17T00:40:00.890Z,11.48
2023-06-17T00:42:27.726Z,11.46
2023-06-17T00:44:54.575Z,11.31
2023-06-17T00:47:21.345Z,11.41
2023-06-17T00:49:48.597Z,11.29
2023-06-17T00:52:31.635Z,11.42
2023-06-17T00:55:02.645Z,11.44
2023-06-17T00:57:30.526Z,11.45
2023-06-17T00:59:57.290Z,11.40
2023-06-17T01:02:27.168Z,11.42
2023-06-17T01:04:55.368Z,11.35
2023-06-17T01:07:59.790Z,11.40
2023-06-17T01:10:38.677Z,11.29
2023-06-17T01:13:06.478Z,11.21
2023-06-17T01:15:36.928Z,11.26
2023-06-17T01:18:06.397Z,11.25
2023-06-17T01:20:37.488Z,11.36
2023-06-17T01:23:06.644Z,11.32
2023-06-17T01:25:34.464Z,11.19
2023-06-17T01:28:17.267Z,11.15
2023-06-17T01:30:49.191Z,11.04
2023-06-17T01:33:16.551Z,10.95
2023-06-17T01:35:51.746Z,10.96
2023-06-17T01:38:28.988Z,10.99
2023-06-17T01:41:08.344Z,10.98
2023-06-17T01:43:35.868Z,10.89
2023-06-17T01:46:03.385Z,10.84
2023-06-17T01:48:30.079Z,10.76
2023-06-17T01:50:56.760Z,10.79
2023-06-17T01:53:26.046Z,10.69
2023-06-17T01:55:53.484Z,10.68
2023-06-17T01:58:20.251Z,10.67
2023-06-17T02:00:46.962Z,10.71
2023-06-17T02:03:13.916Z,10.70
2023-06-17T02:05:40.751Z,10.63
2023-06-17T02:08:07.387Z,10.59
2023-06-17T02:10:34.238Z,10.50
2023-06-17T02:13:02.762Z,10.56
2023-06-17T02:15:29.453Z,10.53
2023-06-17T02:17:56.630Z,10.54
2023-06-17T02:20:23.929Z,10.55
2023-06-17T02:22:50.943Z,10.49
2023-06-17T02:25:18.203Z,10.38
2023-06-17T02:27:44.948Z,10.27
2023-06-17T02:30:12.309Z,10.21
2023-06-17T02:32:38.991Z,10.19
2023-06-17T02:35:06.319Z,10.07
2023-06-17T02:37:32.952Z,9.91
2023-06-17T02:39:59.622Z,9.93
2023-06-17T02:42:26.407Z,9.80
2023-06-17T02:44:53.096Z,9.85
2023-06-17T02:47:19.833Z,9.74
2023-06-17T02:49:46.590Z,9.79
2023-06-17T02:52:13.357Z,9.72
2023-06-17T02:54:40.095Z,9.71
2023-06-17T02:57:06.847Z,9.70
2023-06-17T02:59:34.855Z,9.80
2023-06-17T03:02:01.721Z,9.73
2023-06-17T03:04:36.047Z,9.76
2023-06-17T03:07:06.532Z,9.53
2023-06-17T03:09:33.864Z,9.56
2023-06-17T03:12:00.907Z,9.54
2023-06-17T03:14:28.606Z,9.48
2023-06-17T03:16:55.453Z,9.47
2023-06-17T03:19:23.720Z,9.43
2023-06-17T03:21:51.410Z,9.36
2023-06-17T03:24:18.240Z,9.37
2023-06-17T03:26:46.297Z,9.29
2023-06-17T03:29:13.257Z,9.25
2023-06-17T03:31:40.276Z,9.34
2023-06-17T03:34:07.234Z,9.12
2023-06-17T03:36:35.100Z,9.16
2023-06-17T03:39:02.049Z,9.25
2023-06-17T03:41:28.829Z,9.37
2023-06-17T03:43:55.618Z,9.45
2023-06-17T03:46:22.632Z,9.54
2023-06-17T03:48:49.612Z,9.52
2023-06-17T03:51:18.223Z,9.56
2023-06-17T03:53:47.399Z,9.31
2023-06-17T03:56:15.169Z,9.20
2023-06-17T03:58:42.239Z,9.02
2023-06-17T04:01:13.555Z,9.09
2023-06-17T04:03:44.441Z,9.11
2023-06-17T04:06:11.316Z,9.10
2023-06-17T04:08:38.727Z,9.35
2023-06-17T04:11:06.526Z,9.31
2023-06-17T04:13:33.569Z,9.46
2023-06-17T04:16:01.688Z,9.54
2023-06-17T04:18:29.630Z,9.45
2023-06-17T04:20:58.019Z,9.37
2023-06-17T04:23:25.736Z,9.46
2023-06-17T04:25:53.077Z,9.50
2023-06-17T04:28:20.956Z,9.61
2023-06-17T04:30:49.364Z,9.68
2023-06-17T04:33:16.285Z,9.74
2023-06-17T04:35:43.814Z,9.85
2023-06-17T04:38:11.856Z,9.96
2023-06-17T04:40:39.159Z,10.18
2023-06-17T04:43:07.291Z,10.13
2023-06-17T04:45:36.551Z,10.35
2023-06-17T04:48:07.675Z,10.32
2023-06-17T04:50:35.030Z,10.44
2023-06-17T04:53:05.385Z,10.61
2023-06-17T04:55:37.038Z,10.76
2023-06-17T04:58:05.273Z,10.98
2023-06-17T05:00:32.349Z,10.99
2023-06-17T05:02:59.522Z,11.15
2023-06-17T05:05:26.541Z,11.34
2023-06-17T05:07:53.476Z,11.60
2023-06-17T05:10:20.588Z,11.94
2023-06-17T05:12:47.827Z,12.16
2023-06-17T05:15:14.649Z,12.35
2023-06-17T05:17:44.791Z,12.58
2023-06-17T05:20:12.336Z,12.80
2023-06-17T05:22:40.734Z,13.03
2023-06-17T05:25:11.172Z,13.23
2023-06-17T05:27:39.908Z,13.46
2023-06-17T05:30:07.722Z,13.72
2023-06-17T05:32:36.930Z,13.93
2023-06-17T05:35:09.105Z,14.12
2023-06-17T05:37:36.466Z,14.33
2023-06-17T05:40:03.507Z,14.50
2023-06-17T05:42:33.472Z,14.45
2023-06-17T05:45:10.304Z,14.53
2023-06-17T05:47:37.800Z,14.68
2023-06-17T05:50:05.926Z,14.82
2023-06-17T05:52:33.023Z,14.96
2023-06-17T05:55:00.238Z,15.07
2023-06-17T05:57:27.457Z,15.32
2023-06-17T05:59:54.904Z,15.44
2023-06-17T06:02:22.033Z,15.64
2023-06-17T06:04:48.741Z,15.87
2023-06-17T06:07:15.599Z,16.05
2023-06-17T06:09:42.401Z,16.29
2023-06-17T06:12:09.459Z,16.46
2023-06-17T06:14:36.397Z,16.60
2023-06-17T06:17:04.729Z,16.67
2023-06-17T06:19:50.183Z,16.83
2023-06-17T06:22:18.378Z,16.74
2023-06-17T06:24:47.249Z,16.87
2023-06-17T06:27:14.568Z,17.01
2023-06-17T06:29:42.295Z,17.13
2023-06-17T06:32:14.561Z,17.20
2023-06-17T06:34:50.986Z,17.40
2023-06-17T06:37:20.471Z,17.54
2023-06-17T06:39:48.815Z,17.82
2023-06-17T06:42:18.347Z,18.08
2023-06-17T06:44:45.884Z,18.43
2023-06-17T06:47:15.086Z,18.76
2023-06-17T06:49:42.037Z,19.03
2023-06-17T06:52:09.007Z,19.30
2023-06-17T06:54:35.958Z,19.44
2023-06-17T06:57:02.894Z,19.62
2023-06-17T06:59:30.033Z,19.98
2023-06-17T07:01:57.818Z,20.24
2023-06-17T07:04:24.930Z,20.34
2023-06-17T07:06:53.192Z,20.56
2023-06-17T07:09:20.264Z,20.76
2023-06-17T07:11:46.981Z,20.92
2023-06-17T07:14:13.686Z,21.05
2023-06-17T07:16:40.363Z,21.22
2023-06-17T07:19:07.018Z,21.35
2023-06-17T07:21:33.615Z,21.48
2023-06-17T07:24:00.229Z,21.54
2023-06-17T07:26:26.848Z,21.71
2023-06-17T07:28:53.532Z,21.97
2023-06-17T07:31:20.154Z,21.97
2023-06-17T07:33:46.864Z,22.16
2023-06-17T07:36:13.474Z,22.28
2023-06-17T07:38:40.115Z,22.24
2023-06-17T07:41:06.702Z,22.27
2023-06-17T07:43:35.823Z,22.26
2023-06-17T07:49:45.988Z,22.69
2023-06-17T07:56:04.976Z,23.03
2023-06-17T07:58:31.629Z,23.17
2023-06-17T08:00:58.251Z,23.20
2023-06-17T08:03:30.489Z,23.32
2023-06-17T08:05:58.303Z,23.13
2023-06-17T08:08:24.932Z,22.89
2023-06-17T08:10:51.665Z,23.05
2023-06-17T08:13:18.247Z,23.20
2023-06-17T08:15:44.926Z,23.30
2023-06-17T08:18:11.647Z,23.44
2023-06-17T08:20:38.325Z,23.21
2023-06-17T08:23:05.019Z,23.25
2023-06-17T08:25:33.217Z,23.47
2023-06-17T08:31:49.877Z,23.40
2023-06-17T08:38:23.898Z,23.31
2023-06-17T08:40:50.647Z,23.57
2023-06-17T08:43:20.591Z,23.84
2023-06-17T08:45:49.880Z,23.78
2023-06-17T08:48:17.109Z,23.93
2023-06-17T08:50:46.124Z,24.17
2023-06-17T08:53:14.418Z,24.13
2023-06-17T08:55:41.233Z,24.08
2023-06-17T08:58:08.690Z,23.96
2023-06-17T09:00:36.594Z,24.22
2023-06-17T09:03:07.705Z,24.37
2023-06-17T09:05:34.411Z,24.54
2023-06-17T09:08:01.387Z,24.60
2023-06-17T09:10:28.012Z,24.82
2023-06-17T09:12:58.983Z,24.95
2023-06-17T09:15:25.524Z,25.03
2023-06-17T09:17:54.710Z,24.83
2023-06-17T09:20:21.855Z,24.85
2023-06-17T09:22:49.407Z,24.94
2023-06-17T09:25:17.219Z,24.82
2023-06-17T09:30:45.342Z,24.64
2023-06-17T09:33:20.128Z,24.64
2023-06-17T09:35:48.270Z,24.63
2023-06-17T09:38:21.330Z,24.86
2023-06-17T09:40:49.412Z,24.84
2023-06-17T09:43:26.031Z,25.15
2023-06-17T09:46:02.941Z,24.76
2023-06-17T09:48:38.688Z,25.21
2023-06-17T09:51:06.721Z,25.52
2023-06-17T09:53:35.434Z,25.75
2023-06-17T09:56:03.770Z,25.65
2023-06-17T09:58:31.991Z,25.88
2023-06-17T10:01:01.773Z,26.02
2023-06-17T10:03:28.896Z,26.55
2023-06-17T10:06:04.423Z,26.77
2023-06-17T10:08:31.951Z,27.28
2023-06-17T10:11:00.870Z,28.13
2023-06-17T10:13:29.961Z,29.50
2023-06-17T10:15:56.944Z,30.68
2023-06-17T10:18:24.565Z,31.71
2023-06-17T10:20:51.959Z,31.85
2023-06-17T10:23:23.301Z,32.38
2023-06-17T10:25:49.926Z,32.05
2023-06-17T10:28:16.966Z,32.56
2023-06-17T10:34:32.915Z,33.92
2023-06-17T10:37:43.365Z,34.37
2023-06-17T10:40:26.588Z,35.28
2023-06-17T10:43:16.718Z,34.89
2023-06-17T10:45:56.990Z,34.95
2023-06-17T10:48:31.658Z,34.43
2023-06-17T10:51:03.140Z,34.81
2023-06-17T10:53:32.020Z,35.51
2023-06-17T10:56:00.709Z,35.99
2023-06-17T10:58:32.044Z,36.29
2023-06-17T11:01:06.712Z,37.02
2023-06-17T11:03:33.967Z,37.27
2023-06-17T11:06:02.390Z,37.37
2023-06-17T11:08:34.125Z,37.18
2023-06-17T11:11:17.844Z,37.43
2023-06-17T11:13:48.298Z,37.18
2023-06-17T11:16:14.969Z,37.09
2023-06-17T11:18:43.335Z,37.31
2023-06-17T11:21:10.765Z,38.43
2023-06-17T11:23:39.824Z,39.22
2023-06-17T11:26:08.305Z,40.04
2023-06-17T11:28:36.435Z,40.80
2023-06-17T11:31:03.984Z,41.28
2023-06-17T11:33:32.154Z,40.33
2023-06-17T11:35:58.828Z,41.73
2023-06-17T11:38:27.529Z,41.28
2023-06-17T11:40:58.931Z,41.24
2023-06-17T11:43:29.016Z,41.47
2023-06-17T11:45:57.697Z,42.68
2023-06-17T11:48:28.933Z,43.00
2023-06-17T11:51:01.068Z,42.64
2023-06-17T11:53:44.796Z,42.58
2023-06-17T11:56:11.462Z,41.91
2023-06-17T11:58:41.042Z,42.59
2023-06-17T12:01:08.665Z,42.43
2023-06-17T12:03:36.063Z,42.54
2023-06-17T12:06:03.219Z,42.44
2023-06-17T12:08:36.671Z,42.82
2023-06-17T12:11:10.759Z,43.76
2023-06-17T12:13:43.945Z,44.13
2023-06-17T12:16:28.980Z,44.44
2023-06-17T12:18:55.699Z,46.05
2023-06-17T12:21:23.206Z,46.01
2023-06-17T12:23:52.092Z,45.71
2023-06-17T12:26:19.354Z,44.97
2023-06-17T12:28:46.408Z,44.88
2023-06-17T12:31:13.829Z,44.09
2023-06-17T12:33:40.819Z,45.03
2023-06-17T12:36:08.298Z,46.21
2023-06-17T12:38:34.969Z,46.32
2023-06-17T12:41:02.124Z,46.13
2023-06-17T12:43:32.007Z,46.12
2023-06-17T12:46:02.496Z,46.29
2023-06-17T12:48:30.122Z,43.78
2023-06-17T12:50:57.166Z,44.13
2023-06-17T12:53:24.319Z,46.24
2023-06-17T12:55:51.988Z,47.85
2023-06-17T12:58:18.566Z,48.97
2023-06-17T13:00:45.992Z,49.77
2023-06-17T13:03:13.783Z,48.80
2023-06-17T13:05:41.314Z,49.82
2023-06-17T13:08:08.351Z,48.37
2023-06-17T13:10:35.035Z,48.57
2023-06-17T13:13:01.683Z,48.18
2023-06-17T13:15:30.716Z,49.58
2023-06-17T13:17:57.622Z,50.46
2023-06-17T13:20:24.727Z,48.69
2023-06-17T13:22:51.808Z,48.06
2023-06-17T13:25:18.491Z,47.88
2023-06-17T13:27:45.146Z,44.98
2023-06-17T13:30:13.410Z,43.33
2023-06-17T13:36:26.790Z,37.93
2023-06-17T13:38:53.614Z,36.49
2023-06-17T13:41:21.354Z,35.78
2023-06-17T13:43:48.095Z,34.36
2023-06-17T13:46:15.249Z,34.04
2023-06-17T13:48:43.316Z,33.22
2023-06-17T13:51:09.912Z,32.30
2023-06-17T13:53:36.717Z,31.88
2023-06-17T13:56:03.536Z,31.77
2023-06-17T13:58:30.163Z,31.69
2023-06-17T14:00:57.417Z,31.37
2023-06-17T14:03:24.283Z,31.06
2023-06-17T14:05:51.002Z,31.25
2023-06-17T14:08:17.741Z,30.55
2023-06-17T14:10:44.351Z,31.83
2023-06-17T14:13:11.035Z,32.20
2023-06-17T14:15:37.626Z,31.34
2023-06-17T14:18:04.393Z,30.91
2023-06-17T14:20:31.103Z,29.85
2023-06-17T14:22:58.862Z,30.38
2023-06-17T14:25:28.313Z,30.36
2023-06-17T14:27:54.923Z,30.27
2023-06-17T14:30:21.910Z,30.21
2023-06-17T14:32:49.814Z,30.22
2023-06-17T14:35:18.726Z,30.02
2023-06-17T14:37:47.148Z,29.83
2023-06-17T14:40:14.425Z,29.72
2023-06-17T14:42:41.737Z,29.46
2023-06-17T14:45:13.033Z,29.30
2023-06-17T14:47:40.578Z,29.19
2023-06-17T14:50:09.038Z,29.66
2023-06-17T14:52:36.139Z,29.32
2023-06-17T14:55:02.806Z,28.59
2023-06-17T14:57:31.502Z,27.92
2023-06-17T15:00:00.047Z,27.78
2023-06-17T15:02:49.024Z,27.80
2023-06-17T15:05:17.538Z,27.45
2023-06-17T15:07:44.227Z,27.06
2023-06-17T15:10:11.150Z,26.75
2023-06-17T15:12:39.892Z,26.42
2023-06-17T15:15:07.033Z,26.52
2023-06-17T15:17:33.657Z,27.58
2023-06-17T15:20:00.275Z,30.09
2023-06-17T15:22:27.822Z,30.35
2023-06-17T15:24:54.491Z,29.15
2023-06-17T15:27:21.043Z,28.57
2023-06-17T15:29:47.655Z,29.08
2023-06-17T15:32:14.297Z,30.26
2023-06-17T15:34:40.932Z,31.86
2023-06-17T15:37:08.183Z,32.75
2023-06-17T15:39:36.071Z,32.27
2023-06-17T15:42:03.084Z,31.98
2023-06-17T15:44:29.649Z,31.52
2023-06-17T15:46:56.490Z,33.30
2023-06-17T15:49:23.140Z,35.03
2023-06-17T15:51:49.713Z,34.53
2023-06-17T15:54:16.569Z,33.46
2023-06-17T15:56:47.030Z,32.24
2023-06-17T15:59:13.719Z,30.57
2023-06-17T16:01:40.317Z,28.91
2023-06-17T16:04:16.899Z,28.27
2023-06-17T16:06:43.651Z,27.65
2023-06-17T16:09:10.245Z,27.66
2023-06-17T16:11:36.851Z,27.61
2023-06-17T16:14:03.570Z,27.68
2023-06-17T16:16:30.816Z,27.61
2023-06-17T16:18:57.422Z,27.62
2023-06-17T16:25:14.059Z,27.54
2023-06-17T16:27:41.778Z,27.20
2023-06-17T16:30:09.376Z,27.64
2023-06-17T16:32:35.964Z,27.24
2023-06-17T16:35:02.699Z,27.01
2023-06-17T16:37:29.324Z,26.81
2023-06-17T16:39:56.078Z,26.67
2023-06-17T16:42:22.687Z,26.69
2023-06-17T16:44:49.293Z,26.64
2023-06-17T16:47:16.345Z,26.48
2023-06-17T16:49:43.066Z,26.33
2023-06-17T16:52:09.715Z,26.17
2023-06-17T16:54:36.333Z,25.86
2023-06-17T16:57:03.358Z,25.54
2023-06-17T16:59:30.034Z,25.54
2023-06-17T17:01:56.686Z,25.56
2023-06-17T17:04:23.345Z,25.73
2023-06-17T17:06:49.912Z,25.76
2023-06-17T17:09:16.571Z,25.59
2023-06-17T17:11:43.356Z,25.46
2023-06-17T17:14:10.003Z,25.46
2023-06-17T17:16:36.747Z,25.40
2023-06-17T17:19:03.428Z,25.20
2023-06-17T17:21:30.556Z,25.19
2023-06-17T17:23:57.432Z,25.02
2023-06-17T17:26:24.097Z,24.94
2023-06-17T17:28:51.008Z,24.77
2023-06-17T17:31:17.695Z,24.54
2023-06-17T17:33:45.169Z,24.42
2023-06-17T17:36:13.164Z,24.26
2023-06-17T17:38:40.904Z,24.30
2023-06-17T17:41:07.471Z,24.15
2023-06-17T17:43:34.174Z,23.98
2023-06-17T17:46:02.693Z,23.86
2023-06-17T17:48:29.386Z,23.71
2023-06-17T17:50:56.128Z,23.51
2023-06-17T17:53:22.906Z,23.48
2023-06-17T17:55:49.576Z,23.37
2023-06-17T17:58:17.358Z,23.34
2023-06-17T18:00:43.976Z,23.29
2023-06-17T18:03:10.783Z,23.15
2023-06-17T18:05:37.554Z,23.07
2023-06-17T18:08:04.344Z,23.00
2023-06-17T18:10:30.989Z,22.84
2023-06-17T18:12:57.572Z,22.76
2023-06-17T18:15:24.241Z,22.67
2023-06-17T18:17:51.025Z,22.51
2023-06-17T18:20:17.667Z,22.40
2023-06-17T18:22:44.281Z,22.27
2023-06-17T18:25:11.215Z,22.12
2023-06-17T18:27:39.101Z,22.05
2023-06-17T18:30:06.412Z,21.89
2023-06-17T18:32:33.120Z,21.77
2023-06-17T18:34:59.815Z,21.70
2023-06-17T18:37:27.194Z,21.50
2023-06-17T18:39:53.815Z,21.31
2023-06-17T18:42:20.408Z,21.13
2023-06-17T18:44:47.026Z,20.91
2023-06-17T18:47:13.827Z,20.75
2023-06-17T18:49:41.740Z,20.60
2023-06-17T18:52:08.478Z,20.35
2023-06-17T18:54:35.117Z,20.20
2023-06-17T18:57:01.939Z,20.10
2023-06-17T18:59:28.549Z,19.93
2023-06-17T19:01:55.314Z,19.89
2023-06-17T19:04:22.000Z,19.81
2023-06-17T19:06:50.435Z,19.67
2023-06-17T19:09:17.142Z,19.63
2023-06-17T19:11:43.820Z,19.52
2023-06-17T19:14:11.828Z,19.44
2023-06-17T19:16:38.687Z,19.21
2023-06-17T19:19:05.565Z,19.09
2023-06-17T19:21:32.364Z,18.97
2023-06-17T19:23:59.062Z,18.85
2023-06-17T19:26:25.847Z,18.63
2023-06-17T19:28:52.710Z,18.51
2023-06-17T19:31:26.026Z,18.45
2023-06-17T19:33:53.676Z,18.32
2023-06-17T19:36:20.413Z,18.25
2023-06-17T19:38:47.054Z,18.16
2023-06-17T19:41:13.712Z,18.02
2023-06-17T19:43:40.439Z,17.93
2023-06-17T19:46:09.179Z,17.78
2023-06-17T19:48:36.143Z,17.56
2023-06-17T19:51:02.797Z,17.41
2023-06-17T19:53:29.407Z,17.38
2023-06-17T19:55:56.245Z,17.33
2023-06-17T19:58:22.913Z,17.18
2023-06-17T20:00:49.582Z,16.90
2023-06-17T20:03:16.718Z,16.71
2023-06-17T20:05:45.926Z,16.44
2023-06-17T20:08:13.143Z,16.50
2023-06-17T20:10:40.297Z,16.50
2023-06-17T20:13:06.939Z,16.45
2023-06-17T20:15:33.899Z,16.30
2023-06-17T20:18:00.702Z,16.31
2023-06-17T20:20:28.684Z,16.28
2023-06-17T20:22:55.397Z,16.18
2023-06-17T20:25:22.425Z,16.13
2023-06-17T20:27:49.177Z,16.16
2023-06-17T20:30:16.047Z,16.05
2023-06-17T20:32:42.740Z,16.02
2023-06-17T20:35:09.793Z,16.01
2023-06-17T20:37:37.160Z,15.97
2023-06-17T20:40:04.869Z,15.88
2023-06-17T20:42:31.518Z,15.85
2023-06-17T20:44:58.116Z,15.74
2023-06-17T20:47:24.826Z,15.70
2023-06-17T20:49:51.462Z,15.71
2023-06-17T20:52:18.398Z,15.71
2023-06-17T20:54:44.954Z,15.64
2023-06-17T20:57:12.147Z,15.55
2023-06-17T20:59:38.756Z,15.51
2023-06-17T21:02:05.633Z,15.57
2023-06-17T21:04:32.231Z,15.60
2023-06-17T21:06:58.921Z,15.64
2023-06-17T21:09:26.067Z,15.45
2023-06-17T21:11:53.051Z,15.48
2023-06-17T21:14:19.776Z,15.33
2023-06-17T21:16:46.420Z,15.29
2023-06-17T21:19:13.125Z,15.29
2023-06-17T21:21:39.870Z,15.22
2023-06-17T21:24:06.568Z,15.17
2023-06-17T21:26:33.252Z,15.06
2023-06-17T21:28:59.853Z,14.99
2023-06-17T21:31:26.485Z,15.06
2023-06-17T21:33:54.373Z,15.08
2023-06-17T21:36:21.582Z,15.03
2023-06-17T21:38:48.189Z,15.02
2023-06-17T21:41:14.805Z,14.87
2023-06-17T21:43:41.457Z,14.89
2023-06-17T21:46:08.161Z,14.76
2023-06-17T21:48:34.805Z,14.67
2023-06-17T21:51:01.408Z,14.59
2023-06-17T21:53:28.048Z,14.54
2023-06-17T21:55:54.732Z,14.41
2023-06-17T21:58:21.414Z,14.41
2023-06-17T22:00:50.325Z,14.38
2023-06-17T22:03:17.371Z,14.40
2023-06-17T22:05:43.977Z,14.36
2023-06-17T22:08:10.594Z,14.38
2023-06-17T22:10:37.214Z,14.39
2023-06-17T22:13:03.900Z,14.32
2023-06-17T22:15:30.552Z,14.18
2023-06-17T22:17:57.298Z,14.08
2023-06-17T22:20:24.403Z,14.01
2023-06-17T22:22:51.237Z,13.94
2023-06-17T22:25:17.850Z,13.88
2023-06-17T22:27:44.580Z,13.91
2023-06-17T22:30:11.443Z,13.76
2023-06-17T22:32:38.461Z,13.64
2023-06-17T22:35:05.917Z,13.60
2023-06-17T22:37:32.663Z,13.58
2023-06-17T22:39:59.307Z,13.54
2023-06-17T22:42:25.952Z,13.69
2023-06-17T22:44:52.698Z,13.71
2023-06-17T22:47:19.450Z,13.70
2023-06-17T22:49:46.509Z,13.63
2023-06-17T22:52:13.270Z,13.61
2023-06-17T22:54:39.889Z,13.55
2023-06-17T22:57:07.126Z,13.29
2023-06-17T22:59:33.779Z,13.16
2023-06-17T23:02:02.269Z,13.16
2023-06-17T23:04:29.244Z,13.12
2023-06-17T23:06:55.926Z,13.09
2023-06-17T23:09:22.511Z,13.01
2023-06-17T23:11:49.165Z,12.88
2023-06-17T23:14:15.810Z,12.98
2023-06-17T23:16:42.408Z,13.03
2023-06-17T23:19:09.256Z,13.04
2023-06-17T23:21:37.934Z,12.98
2023-06-17T23:24:04.973Z,13.00
2023-06-17T23:26:33.669Z,12.98
2023-06-17T23:29:00.436Z,13.03
2023-06-17T23:31:27.528Z,13.10
2023-06-17T23:33:54.798Z,13.08
2023-06-17T23:36:22.458Z,12.97
2023-06-17T23:38:49.597Z,13.03
2023-06-17T23:41:16.549Z,13.00
2023-06-17T23:43:43.182Z,12.98
2023-06-17T23:46:11.883Z,12.93
2023-06-17T23:48:38.641Z,12.78
2023-06-17T23:51:05.382Z,12.77
2023-06-17T23:53:31.968Z,12.77
2023-06-17T23:55:58.593Z,12.70
2023-06-17T23:58:26.297Z,12.62
